sensor_id;sensor_type;location;lat;lon;timestamp;temperature;humidity
2957;DHT22;1488;51.548;7.222;2024-01-16T06:47:24;22.90;51.70
2957;DHT22;1488;51.548;7.222;2024-01-16T06:49:51;22.90;51.80
2957;DHT22;1488;51.548;7.222;2024-01-16T06:52:18;22.90;50.90
2957;DHT22;1488;51.548;7.222;2024-01-16T06:54:45;22.90;51.40
2957;DHT22;1488;51.548;7.222;2024-01-16T06:57:12;22.90;51.50
2957;DHT22;1488;51.548;7.222;2024-01-16T06:59:39;22.90;51.60
2957;DHT22;1488;51.548;7.222;2024-01-16T07:02:06;22.90;51.60
2957;DHT22;1488;51.548;7.222;2024-01-16T07:04:35;22.90;51.60
2957;DHT22;1488;51.548;7.222;2024-01-16T07:07:02;22.90;51.50
2957;DHT22;1488;51.548;7.222;2024-01-16T07:09:29;22.90;51.40
2957;DHT22;1488;51.548;7.222;2024-01-16T07:11:56;22.90;51.40
2957;DHT22;1488;51.548;7.222;2024-01-16T07:14:23;22.90;51.50
2957;DHT22;1488;51.548;7.222;2024-01-16T07:16:50;22.90;51.30
2957;DHT22;1488;51.548;7.222;2024-01-16T07:19:16;23.00;51.40
2957;DHT22;1488;51.548;7.222;2024-01-16T07:21:45;23.00;51.20
2957;DHT22;1488;51.548;7.222;2024-01-16T07:24:12;23.00;51.30
2957;DHT22;1488;51.548;7.222;2024-01-16T07:26:39;23.00;51.30
2957;DHT22;1488;51.548;7.222;2024-01-16T07:29:07;23.00;51.30
2957;DHT22;1488;51.548;7.222;2024-01-16T07:31:34;23.00;51.30
2957;DHT22;1488;51.548;7.222;2024-01-16T07:34:01;23.00;51.30
2957;DHT22;1488;51.548;7.222;2024-01-16T07:36:28;23.00;51.30
2957;DHT22;1488;51.548;7.222;2024-01-16T07:38:56;23.00;51.20
2957;DHT22;1488;51.548;7.222;2024-01-16T07:41:23;23.00;51.00
2957;DHT22;1488;51.548;7.222;2024-01-16T07:43:50;23.10;51.20
2957;DHT22;1488;51.548;7.222;2024-01-16T07:46:17;23.00;51.20
2957;DHT22;1488;51.548;7.222;2024-01-16T07:48:44;23.00;51.30
2957;DHT22;1488;51.548;7.222;2024-01-16T07:51:11;23.00;51.30
2957;DHT22;1488;51.548;7.222;2024-01-16T07:53:38;23.00;51.20
2957;DHT22;1488;51.548;7.222;2024-01-16T07:56:06;23.00;51.20
2957;DHT22;1488;51.548;7.222;2024-01-16T07:58:34;23.00;51.40
2957;DHT22;1488;51.548;7.222;2024-01-16T08:01:02;23.00;51.10
2957;DHT22;1488;51.548;7.222;2024-01-16T08:03:29;23.00;51.10
2957;DHT22;1488;51.548;7.222;2024-01-16T08:05:56;23.00;51.10
2957;DHT22;1488;51.548;7.222;2024-01-16T08:08:24;23.00;51.00
2957;DHT22;1488;51.548;7.222;2024-01-16T08:10:51;23.00;51.10
2957;DHT22;1488;51.548;7.222;2024-01-16T08:13:19;23.00;51.00
2957;DHT22;1488;51.548;7.222;2024-01-16T08:15:46;23.00;51.00
2957;DHT22;1488;51.548;7.222;2024-01-16T08:18:13;23.00;51.00
2957;DHT22;1488;51.548;7.222;2024-01-16T08:20:41;23.00;51.00
2957;DHT22;1488;51.548;7.222;2024-01-16T08:23:08;23.00;50.90
2957;DHT22;1488;51.548;7.222;2024-01-16T08:25:34;23.00;50.90
2957;DHT22;1488;51.548;7.222;2024-01-16T08:28:04;23.00;50.90
2957;DHT22;1488;51.548;7.222;2024-01-16T08:30:32;23.00;50.80
2957;DHT22;1488;51.548;7.222;2024-01-16T08:32:59;23.00;50.80
2957;DHT22;1488;51.548;7.222;2024-01-16T08:35:26;23.00;51.40
2957;DHT22;1488;51.548;7.222;2024-01-16T08:37:53;23.00;50.80
2957;DHT22;1488;51.548;7.222;2024-01-16T08:40:20;23.00;51.40
2957;DHT22;1488;51.548;7.222;2024-01-16T08:42:47;23.10;50.40
2957;DHT22;1488;51.548;7.222;2024-01-16T08:45:17;23.00;50.40
2957;DHT22;1488;51.548;7.222;2024-01-16T08:47:45;23.10;50.70
2957;DHT22;1488;51.548;7.222;2024-01-16T08:50:12;23.00;50.60
2957;DHT22;1488;51.548;7.222;2024-01-16T08:52:40;23.00;50.50
2957;DHT22;1488;51.548;7.222;2024-01-16T08:55:08;23.00;50.50
2957;DHT22;1488;51.548;7.222;2024-01-16T08:57:36;23.00;50.50
2957;DHT22;1488;51.548;7.222;2024-01-16T09:00:04;23.00;51.10
2957;DHT22;1488;51.548;7.222;2024-01-16T09:02:31;23.00;50.60
2957;DHT22;1488;51.548;7.222;2024-01-16T09:04:59;23.00;50.60
2957;DHT22;1488;51.548;7.222;2024-01-16T09:07:26;23.00;50.50
2957;DHT22;1488;51.548;7.222;2024-01-16T09:09:53;22.90;50.50
2957;DHT22;1488;51.548;7.222;2024-01-16T09:12:20;23.00;50.60
2957;DHT22;1488;51.548;7.222;2024-01-16T09:14:47;23.00;50.50
2957;DHT22;1488;51.548;7.222;2024-01-16T09:17:14;23.00;50.50
2957;DHT22;1488;51.548;7.222;2024-01-16T09:19:41;23.00;50.50
2957;DHT22;1488;51.548;7.222;2024-01-16T09:22:09;23.00;50.50
2957;DHT22;1488;51.548;7.222;2024-01-16T09:24:36;23.00;50.60
2957;DHT22;1488;51.548;7.222;2024-01-16T09:27:03;23.00;50.60
2957;DHT22;1488;51.548;7.222;2024-01-16T09:29:32;23.00;50.50
2957;DHT22;1488;51.548;7.222;2024-01-16T09:31:58;23.00;50.50
2957;DHT22;1488;51.548;7.222;2024-01-16T09:34:25;23.00;50.50
2957;DHT22;1488;51.548;7.222;2024-01-16T09:36:52;23.00;50.50
2957;DHT22;1488;51.548;7.222;2024-01-16T09:39:20;23.00;50.40
2957;DHT22;1488;51.548;7.222;2024-01-16T09:41:47;23.00;50.50
2957;DHT22;1488;51.548;7.222;2024-01-16T09:44:15;23.00;50.40
2957;DHT22;1488;51.548;7.222;2024-01-16T09:46:44;23.00;50.20
2957;DHT22;1488;51.548;7.222;2024-01-16T09:49:14;23.10;50.30
2957;DHT22;1488;51.548;7.222;2024-01-16T09:51:42;23.10;50.60
2957;DHT22;1488;51.548;7.222;2024-01-16T09:54:09;23.00;50.40
2957;DHT22;1488;51.548;7.222;2024-01-16T09:56:42;23.10;50.50
2957;DHT22;1488;51.548;7.222;2024-01-16T09:59:09;23.10;50.40
2957;DHT22;1488;51.548;7.222;2024-01-16T10:01:38;23.10;50.40
2957;DHT22;1488;51.548;7.222;2024-01-16T10:04:04;23.10;50.60
2957;DHT22;1488;51.548;7.222;2024-01-16T10:06:32;23.10;50.50
2957;DHT22;1488;51.548;7.222;2024-01-16T10:09:00;23.10;50.50
2957;DHT22;1488;51.548;7.222;2024-01-16T10:11:27;23.10;50.40
2957;DHT22;1488;51.548;7.222;2024-01-16T10:13:56;23.10;50.40
2957;DHT22;1488;51.548;7.222;2024-01-16T10:17:00;23.20;50.50
2957;DHT22;1488;51.548;7.222;2024-01-16T10:19:29;23.20;50.30
2957;DHT22;1488;51.548;7.222;2024-01-16T10:22:01;23.20;50.30
2957;DHT22;1488;51.548;7.222;2024-01-16T10:24:28;23.20;50.30
2957;DHT22;1488;51.548;7.222;2024-01-16T10:26:58;23.20;50.30
2957;DHT22;1488;51.548;7.222;2024-01-16T10:29:28;23.20;50.40
2957;DHT22;1488;51.548;7.222;2024-01-16T10:31:55;23.20;50.50
2957;DHT22;1488;51.548;7.222;2024-01-16T10:34:22;23.20;50.50
2957;DHT22;1488;51.548;7.222;2024-01-16T10:36:50;23.20;50.40
2957;DHT22;1488;51.548;7.222;2024-01-16T10:39:18;23.20;50.30
2957;DHT22;1488;51.548;7.222;2024-01-16T10:41:54;23.20;50.40
2957;DHT22;1488;51.548;7.222;2024-01-16T10:44:21;23.20;50.20
2957;DHT22;1488;51.548;7.222;2024-01-16T10:46:49;23.20;50.20
2957;DHT22;1488;51.548;7.222;2024-01-16T10:49:16;23.20;50.40
2957;DHT22;1488;51.548;7.222;2024-01-16T10:51:44;23.20;50.40
2957;DHT22;1488;51.548;7.222;2024-01-16T10:54:12;23.20;50.40
2957;DHT22;1488;51.548;7.222;2024-01-16T10:56:44;23.30;50.40
2957;DHT22;1488;51.548;7.222;2024-01-16T10:59:18;23.30;50.40
2957;DHT22;1488;51.548;7.222;2024-01-16T11:01:48;23.20;50.30
2957;DHT22;1488;51.548;7.222;2024-01-16T11:04:18;23.30;50.30
2957;DHT22;1488;51.548;7.222;2024-01-16T11:06:47;23.30;50.30
2957;DHT22;1488;51.548;7.222;2024-01-16T11:09:14;23.30;50.30
2957;DHT22;1488;51.548;7.222;2024-01-16T11:11:42;23.20;50.20
2957;DHT22;1488;51.548;7.222;2024-01-16T11:14:11;23.30;50.20
2957;DHT22;1488;51.548;7.222;2024-01-16T11:16:39;23.20;50.20
2957;DHT22;1488;51.548;7.222;2024-01-16T11:19:08;23.20;50.10
2957;DHT22;1488;51.548;7.222;2024-01-16T11:21:38;23.30;50.30
2957;DHT22;1488;51.548;7.222;2024-01-16T11:24:06;23.20;50.10
2957;DHT22;1488;51.548;7.222;2024-01-16T11:26:34;23.30;50.50
2957;DHT22;1488;51.548;7.222;2024-01-16T11:29:33;23.30;50.30
2957;DHT22;1488;51.548;7.222;2024-01-16T11:32:00;23.30;50.60
2957;DHT22;1488;51.548;7.222;2024-01-16T11:34:53;23.30;50.70
2957;DHT22;1488;51.548;7.222;2024-01-16T11:37:31;23.30;50.40
2957;DHT22;1488;51.548;7.222;2024-01-16T11:40:20;23.30;50.50
2957;DHT22;1488;51.548;7.222;2024-01-16T11:42:47;23.30;50.50
2957;DHT22;1488;51.548;7.222;2024-01-16T11:45:47;23.30;50.50
2957;DHT22;1488;51.548;7.222;2024-01-16T11:48:16;23.30;50.60
2957;DHT22;1488;51.548;7.222;2024-01-16T11:50:43;23.30;50.50
2957;DHT22;1488;51.548;7.222;2024-01-16T11:53:31;23.40;50.00
2957;DHT22;1488;51.548;7.222;2024-01-16T11:56:26;23.40;50.10
2957;DHT22;1488;51.548;7.222;2024-01-16T11:59:12;23.40;50.40
2957;DHT22;1488;51.548;7.222;2024-01-16T12:01:45;23.40;50.40
2957;DHT22;1488;51.548;7.222;2024-01-16T12:04:14;23.40;50.40
2957;DHT22;1488;51.548;7.222;2024-01-16T12:06:43;23.40;50.30
2957;DHT22;1488;51.548;7.222;2024-01-16T12:09:15;23.40;50.40
2957;DHT22;1488;51.548;7.222;2024-01-16T12:11:43;23.50;50.40
2957;DHT22;1488;51.548;7.222;2024-01-16T12:14:11;23.40;50.30
2957;DHT22;1488;51.548;7.222;2024-01-16T12:16:38;23.50;50.40
2957;DHT22;1488;51.548;7.222;2024-01-16T12:19:05;23.50;50.40
2957;DHT22;1488;51.548;7.222;2024-01-16T12:21:34;23.50;50.40
2957;DHT22;1488;51.548;7.222;2024-01-16T12:24:02;23.60;50.40
2957;DHT22;1488;51.548;7.222;2024-01-16T12:26:30;23.60;50.80
2957;DHT22;1488;51.548;7.222;2024-01-16T12:28:58;23.60;50.40
2957;DHT22;1488;51.548;7.222;2024-01-16T12:31:26;23.60;50.40
2957;DHT22;1488;51.548;7.222;2024-01-16T12:34:03;23.60;51.00
2957;DHT22;1488;51.548;7.222;2024-01-16T12:36:30;23.60;50.40
2957;DHT22;1488;51.548;7.222;2024-01-16T12:38:57;23.60;50.60
2957;DHT22;1488;51.548;7.222;2024-01-16T12:41:25;23.50;50.70
2957;DHT22;1488;51.548;7.222;2024-01-16T12:43:54;23.60;50.90
2957;DHT22;1488;51.548;7.222;2024-01-16T12:46:20;23.60;50.80
2957;DHT22;1488;51.548;7.222;2024-01-16T12:48:47;23.60;50.90
2957;DHT22;1488;51.548;7.222;2024-01-16T12:51:22;23.60;50.90
2957;DHT22;1488;51.548;7.222;2024-01-16T12:53:49;23.60;50.80
2957;DHT22;1488;51.548;7.222;2024-01-16T12:56:18;23.60;50.80
2957;DHT22;1488;51.548;7.222;2024-01-16T12:58:46;23.60;50.70
2957;DHT22;1488;51.548;7.222;2024-01-16T13:01:25;23.60;50.70
2957;DHT22;1488;51.548;7.222;2024-01-16T13:03:53;23.60;50.70
2957;DHT22;1488;51.548;7.222;2024-01-16T13:06:21;23.60;50.40
2957;DHT22;1488;51.548;7.222;2024-01-16T13:08:48;23.60;50.10
2957;DHT22;1488;51.548;7.222;2024-01-16T13:11:16;23.60;49.90
2957;DHT22;1488;51.548;7.222;2024-01-16T13:13:45;23.60;49.90
2957;DHT22;1488;51.548;7.222;2024-01-16T13:16:13;23.60;50.10
2957;DHT22;1488;51.548;7.222;2024-01-16T13:18:42;23.60;49.90
2957;DHT22;1488;51.548;7.222;2024-01-16T13:21:09;23.60;50.20
2957;DHT22;1488;51.548;7.222;2024-01-16T13:23:36;23.60;50.20
2957;DHT22;1488;51.548;7.222;2024-01-16T13:26:03;23.60;49.80
2957;DHT22;1488;51.548;7.222;2024-01-16T13:31:50;23.60;50.00
2957;DHT22;1488;51.548;7.222;2024-01-16T13:34:22;23.50;50.00
2957;DHT22;1488;51.548;7.222;2024-01-16T13:36:51;23.50;49.90
2957;DHT22;1488;51.548;7.222;2024-01-16T13:39:18;23.50;49.90
2957;DHT22;1488;51.548;7.222;2024-01-16T13:41:45;23.50;50.00
2957;DHT22;1488;51.548;7.222;2024-01-16T13:44:12;23.50;50.00
2957;DHT22;1488;51.548;7.222;2024-01-16T13:46:39;23.50;50.00
2957;DHT22;1488;51.548;7.222;2024-01-16T13:49:06;23.50;50.00
2957;DHT22;1488;51.548;7.222;2024-01-16T13:51:34;23.40;50.00
2957;DHT22;1488;51.548;7.222;2024-01-16T13:54:02;23.40;50.10
2957;DHT22;1488;51.548;7.222;2024-01-16T13:56:28;23.40;50.00
2957;DHT22;1488;51.548;7.222;2024-01-16T13:58:56;23.40;50.00
2957;DHT22;1488;51.548;7.222;2024-01-16T14:01:28;23.40;49.90
2957;DHT22;1488;51.548;7.222;2024-01-16T14:03:55;23.40;50.10
2957;DHT22;1488;51.548;7.222;2024-01-16T14:06:21;23.40;50.10
2957;DHT22;1488;51.548;7.222;2024-01-16T14:08:50;23.40;50.10
2957;DHT22;1488;51.548;7.222;2024-01-16T14:11:18;23.40;50.10
2957;DHT22;1488;51.548;7.222;2024-01-16T14:13:45;23.40;50.00
2957;DHT22;1488;51.548;7.222;2024-01-16T14:16:12;23.40;50.00
2957;DHT22;1488;51.548;7.222;2024-01-16T14:18:39;23.40;50.00
2957;DHT22;1488;51.548;7.222;2024-01-16T14:21:06;23.40;50.00
2957;DHT22;1488;51.548;7.222;2024-01-16T14:23:33;23.40;50.00
2957;DHT22;1488;51.548;7.222;2024-01-16T14:26:01;23.40;50.00
2957;DHT22;1488;51.548;7.222;2024-01-16T14:28:28;23.50;50.10
2957;DHT22;1488;51.548;7.222;2024-01-16T14:30:55;23.50;50.10
2957;DHT22;1488;51.548;7.222;2024-01-16T14:33:23;23.50;50.00
2957;DHT22;1488;51.548;7.222;2024-01-16T14:35:49;23.50;50.00
2957;DHT22;1488;51.548;7.222;2024-01-16T14:38:17;23.40;49.90
2957;DHT22;1488;51.548;7.222;2024-01-16T14:40:44;23.40;50.00
2957;DHT22;1488;51.548;7.222;2024-01-16T14:43:14;23.40;50.00
2957;DHT22;1488;51.548;7.222;2024-01-16T14:45:41;23.40;50.00
2957;DHT22;1488;51.548;7.222;2024-01-16T14:48:08;23.40;50.00
2957;DHT22;1488;51.548;7.222;2024-01-16T14:50:36;23.40;50.10
2957;DHT22;1488;51.548;7.222;2024-01-16T14:53:03;23.40;50.10
2957;DHT22;1488;51.548;7.222;2024-01-16T14:55:31;23.40;50.00
2957;DHT22;1488;51.548;7.222;2024-01-16T14:57:58;23.40;49.90
2957;DHT22;1488;51.548;7.222;2024-01-16T15:00:28;23.40;49.90
2957;DHT22;1488;51.548;7.222;2024-01-16T15:02:56;23.40;50.10
2957;DHT22;1488;51.548;7.222;2024-01-16T15:05:23;23.40;50.20
2957;DHT22;1488;51.548;7.222;2024-01-16T15:07:50;23.40;50.10
2957;DHT22;1488;51.548;7.222;2024-01-16T15:10:21;23.40;49.90
2957;DHT22;1488;51.548;7.222;2024-01-16T15:12:49;23.40;50.10
2957;DHT22;1488;51.548;7.222;2024-01-16T15:15:16;23.40;50.10
2957;DHT22;1488;51.548;7.222;2024-01-16T15:17:46;23.40;50.10
2957;DHT22;1488;51.548;7.222;2024-01-16T15:20:14;23.40;50.10
2957;DHT22;1488;51.548;7.222;2024-01-16T15:22:42;23.40;50.00
2957;DHT22;1488;51.548;7.222;2024-01-16T15:25:12;23.40;50.10
2957;DHT22;1488;51.548;7.222;2024-01-16T15:27:43;23.30;50.00
2957;DHT22;1488;51.548;7.222;2024-01-16T15:30:11;23.30;50.00
2957;DHT22;1488;51.548;7.222;2024-01-16T15:32:39;23.30;50.10
2957;DHT22;1488;51.548;7.222;2024-01-16T15:35:10;23.30;50.10
2957;DHT22;1488;51.548;7.222;2024-01-16T15:37:37;23.30;50.10
2957;DHT22;1488;51.548;7.222;2024-01-16T15:40:05;23.30;50.10
2957;DHT22;1488;51.548;7.222;2024-01-16T15:42:32;23.30;50.00
2957;DHT22;1488;51.548;7.222;2024-01-16T15:45:02;23.30;50.10
2957;DHT22;1488;51.548;7.222;2024-01-16T15:47:29;23.30;50.10
2957;DHT22;1488;51.548;7.222;2024-01-16T15:49:56;23.30;50.10
2957;DHT22;1488;51.548;7.222;2024-01-16T15:52:25;23.30;50.10
2957;DHT22;1488;51.548;7.222;2024-01-16T15:54:53;23.30;50.10
2957;DHT22;1488;51.548;7.222;2024-01-16T15:57:20;23.30;50.10
2957;DHT22;1488;51.548;7.222;2024-01-16T15:59:47;23.30;50.10
2957;DHT22;1488;51.548;7.222;2024-01-16T16:02:14;23.20;49.90
2957;DHT22;1488;51.548;7.222;2024-01-16T16:04:41;23.30;49.90
2957;DHT22;1488;51.548;7.222;2024-01-16T16:07:08;23.40;50.10
2957;DHT22;1488;51.548;7.222;2024-01-16T16:09:36;23.40;49.90
2957;DHT22;1488;51.548;7.222;2024-01-16T16:12:05;23.30;49.70
2957;DHT22;1488;51.548;7.222;2024-01-16T16:14:32;23.30;49.70
2957;DHT22;1488;51.548;7.222;2024-01-16T16:17:00;23.30;49.70
2957;DHT22;1488;51.548;7.222;2024-01-16T16:19:29;23.30;49.80
2957;DHT22;1488;51.548;7.222;2024-01-16T16:21:56;23.30;49.70
2957;DHT22;1488;51.548;7.222;2024-01-16T16:24:23;23.20;49.80
2957;DHT22;1488;51.548;7.222;2024-01-16T16:26:51;23.20;49.80
2957;DHT22;1488;51.548;7.222;2024-01-16T16:29:20;23.20;49.80
2957;DHT22;1488;51.548;7.222;2024-01-16T16:31:47;23.20;49.90
2957;DHT22;1488;51.548;7.222;2024-01-16T16:34:14;23.20;49.30
2957;DHT22;1488;51.548;7.222;2024-01-16T16:36:43;23.30;49.90
2957;DHT22;1488;51.548;7.222;2024-01-16T16:39:10;23.20;49.90
2957;DHT22;1488;51.548;7.222;2024-01-16T16:41:40;23.20;50.00
2957;DHT22;1488;51.548;7.222;2024-01-16T16:44:08;23.20;50.00
2957;DHT22;1488;51.548;7.222;2024-01-16T16:46:35;23.20;49.90
2957;DHT22;1488;51.548;7.222;2024-01-16T16:49:02;23.20;50.10
2957;DHT22;1488;51.548;7.222;2024-01-16T16:51:29;23.20;50.10
2957;DHT22;1488;51.548;7.222;2024-01-16T16:53:55;23.20;50.00
2957;DHT22;1488;51.548;7.222;2024-01-16T16:56:23;23.20;50.10
2957;DHT22;1488;51.548;7.222;2024-01-16T16:58:51;23.20;50.00
2957;DHT22;1488;51.548;7.222;2024-01-16T17:01:20;23.20;50.10
2957;DHT22;1488;51.548;7.222;2024-01-16T17:03:47;23.20;50.10
2957;DHT22;1488;51.548;7.222;2024-01-16T17:06:18;23.20;50.00
2957;DHT22;1488;51.548;7.222;2024-01-16T17:08:45;23.20;50.00
2957;DHT22;1488;51.548;7.222;2024-01-16T17:11:12;23.20;50.00
2957;DHT22;1488;51.548;7.222;2024-01-16T17:13:41;23.20;50.00
2957;DHT22;1488;51.548;7.222;2024-01-16T17:16:12;23.20;49.90
2957;DHT22;1488;51.548;7.222;2024-01-16T17:18:40;23.20;50.00
2957;DHT22;1488;51.548;7.222;2024-01-16T17:21:08;23.30;50.00
2957;DHT22;1488;51.548;7.222;2024-01-16T17:23:35;23.30;50.00
2957;DHT22;1488;51.548;7.222;2024-01-16T17:26:02;23.30;49.90
2957;DHT22;1488;51.548;7.222;2024-01-16T17:28:30;23.30;50.00
2957;DHT22;1488;51.548;7.222;2024-01-16T17:30:58;23.30;50.00
2957;DHT22;1488;51.548;7.222;2024-01-16T17:33:25;23.30;50.00
2957;DHT22;1488;51.548;7.222;2024-01-16T17:35:54;23.30;50.00
2957;DHT22;1488;51.548;7.222;2024-01-16T17:38:25;23.30;50.00
2957;DHT22;1488;51.548;7.222;2024-01-16T17:40:52;23.30;49.90
2957;DHT22;1488;51.548;7.222;2024-01-16T17:43:20;23.30;50.00
2957;DHT22;1488;51.548;7.222;2024-01-16T17:45:46;23.30;49.90
2957;DHT22;1488;51.548;7.222;2024-01-16T17:48:13;23.30;50.00
2957;DHT22;1488;51.548;7.222;2024-01-16T17:50:44;23.20;49.90
2957;DHT22;1488;51.548;7.222;2024-01-16T17:53:13;23.20;49.90
2957;DHT22;1488;51.548;7.222;2024-01-16T17:55:40;23.20;49.90
2957;DHT22;1488;51.548;7.222;2024-01-16T17:58:07;23.20;49.90
2957;DHT22;1488;51.548;7.222;2024-01-16T18:00:35;23.20;50.00
2957;DHT22;1488;51.548;7.222;2024-01-16T18:03:03;23.20;49.90
2957;DHT22;1488;51.548;7.222;2024-01-16T18:05:32;23.20;49.90
2957;DHT22;1488;51.548;7.222;2024-01-16T18:07:59;23.20;49.90
2957;DHT22;1488;51.548;7.222;2024-01-16T18:10:27;23.20;49.90
2957;DHT22;1488;51.548;7.222;2024-01-16T18:12:55;23.20;49.90
2957;DHT22;1488;51.548;7.222;2024-01-16T18:15:22;23.20;49.90
2957;DHT22;1488;51.548;7.222;2024-01-16T18:17:52;23.20;49.80
2957;DHT22;1488;51.548;7.222;2024-01-16T18:20:19;23.20;48.60
2957;DHT22;1488;51.548;7.222;2024-01-16T18:22:47;23.30;48.90
2957;DHT22;1488;51.548;7.222;2024-01-16T18:25:16;23.20;49.40
2957;DHT22;1488;51.548;7.222;2024-01-16T18:27:46;23.20;49.50
2957;DHT22;1488;51.548;7.222;2024-01-16T18:30:14;23.20;49.60
2957;DHT22;1488;51.548;7.222;2024-01-16T18:32:41;23.20;49.60
2957;DHT22;1488;51.548;7.222;2024-01-16T18:35:09;23.20;49.60
2957;DHT22;1488;51.548;7.222;2024-01-16T18:37:37;23.20;49.70
2957;DHT22;1488;51.548;7.222;2024-01-16T18:40:06;23.20;49.80
2957;DHT22;1488;51.548;7.222;2024-01-16T18:42:34;23.20;49.80
2957;DHT22;1488;51.548;7.222;2024-01-16T18:45:03;23.20;49.70
2957;DHT22;1488;51.548;7.222;2024-01-16T18:47:30;23.20;49.70
2957;DHT22;1488;51.548;7.222;2024-01-16T18:49:58;23.20;49.80
2957;DHT22;1488;51.548;7.222;2024-01-16T18:52:25;23.20;49.80
2957;DHT22;1488;51.548;7.222;2024-01-16T18:54:52;23.20;49.80
2957;DHT22;1488;51.548;7.222;2024-01-16T18:57:19;23.20;49.90
2957;DHT22;1488;51.548;7.222;2024-01-16T18:59:46;23.20;50.00
2957;DHT22;1488;51.548;7.222;2024-01-16T19:02:14;23.20;50.00
2957;DHT22;1488;51.548;7.222;2024-01-16T19:04:43;23.20;50.00
2957;DHT22;1488;51.548;7.222;2024-01-16T19:07:12;23.20;50.10
2957;DHT22;1488;51.548;7.222;2024-01-16T19:09:39;23.20;50.00
2957;DHT22;1488;51.548;7.222;2024-01-16T19:12:09;23.20;50.00
2957;DHT22;1488;51.548;7.222;2024-01-16T19:14:38;23.20;50.00
2957;DHT22;1488;51.548;7.222;2024-01-16T19:17:05;23.20;50.00
2957;DHT22;1488;51.548;7.222;2024-01-16T19:19:34;23.30;49.90
2957;DHT22;1488;51.548;7.222;2024-01-16T19:22:01;23.30;49.90
2957;DHT22;1488;51.548;7.222;2024-01-16T19:24:28;23.30;49.70
2957;DHT22;1488;51.548;7.222;2024-01-16T19:26:55;23.30;49.50
2957;DHT22;1488;51.548;7.222;2024-01-16T19:32:13;23.40;49.50
2957;DHT22;1488;51.548;7.222;2024-01-16T19:34:41;23.30;49.60
2957;DHT22;1488;51.548;7.222;2024-01-16T19:37:08;23.20;47.40
2957;DHT22;1488;51.548;7.222;2024-01-16T19:39:35;23.20;48.60
2957;DHT22;1488;51.548;7.222;2024-01-16T19:42:08;23.20;49.10
2957;DHT22;1488;51.548;7.222;2024-01-16T19:44:35;23.20;49.40
2957;DHT22;1488;51.548;7.222;2024-01-16T19:47:02;23.30;49.50
2957;DHT22;1488;51.548;7.222;2024-01-16T19:49:30;23.30;49.40
2957;DHT22;1488;51.548;7.222;2024-01-16T19:51:58;23.30;49.30
2957;DHT22;1488;51.548;7.222;2024-01-16T19:54:25;23.30;49.30
2957;DHT22;1488;51.548;7.222;2024-01-16T19:56:52;23.40;49.40
2957;DHT22;1488;51.548;7.222;2024-01-16T19:59:19;23.40;49.40
2957;DHT22;1488;51.548;7.222;2024-01-16T20:01:46;23.40;49.40
2957;DHT22;1488;51.548;7.222;2024-01-16T20:04:15;23.40;49.40
2957;DHT22;1488;51.548;7.222;2024-01-16T20:06:42;23.50;49.50
2957;DHT22;1488;51.548;7.222;2024-01-16T20:09:12;23.50;49.40
2957;DHT22;1488;51.548;7.222;2024-01-16T20:11:42;23.40;49.50
2957;DHT22;1488;51.548;7.222;2024-01-16T20:14:10;23.40;50.00
2957;DHT22;1488;51.548;7.222;2024-01-16T20:16:38;23.50;49.90
2957;DHT22;1488;51.548;7.222;2024-01-16T20:19:05;23.50;49.80
2957;DHT22;1488;51.548;7.222;2024-01-16T20:21:34;23.50;50.10
2957;DHT22;1488;51.548;7.222;2024-01-16T20:24:01;23.50;49.90
2957;DHT22;1488;51.548;7.222;2024-01-16T20:26:31;23.50;50.00
2957;DHT22;1488;51.548;7.222;2024-01-16T20:28:59;23.50;49.90
2957;DHT22;1488;51.548;7.222;2024-01-16T20:31:26;23.50;49.90
2957;DHT22;1488;51.548;7.222;2024-01-16T20:33:53;23.50;49.80
2957;DHT22;1488;51.548;7.222;2024-01-16T20:36:20;23.50;49.90
2957;DHT22;1488;51.548;7.222;2024-01-16T20:38:47;23.50;49.90
2957;DHT22;1488;51.548;7.222;2024-01-16T20:41:15;23.50;49.90
2957;DHT22;1488;51.548;7.222;2024-01-16T20:43:43;23.50;49.80
2957;DHT22;1488;51.548;7.222;2024-01-16T20:46:10;23.50;49.80
2957;DHT22;1488;51.548;7.222;2024-01-16T20:48:37;23.50;50.00
2957;DHT22;1488;51.548;7.222;2024-01-16T20:51:04;23.50;49.80
2957;DHT22;1488;51.548;7.222;2024-01-16T20:53:31;23.50;49.90
2957;DHT22;1488;51.548;7.222;2024-01-16T20:55:58;23.60;49.90
2957;DHT22;1488;51.548;7.222;2024-01-16T20:58:25;23.60;49.90
2957;DHT22;1488;51.548;7.222;2024-01-16T21:00:53;23.60;49.90
2957;DHT22;1488;51.548;7.222;2024-01-16T21:03:20;23.60;49.80
2957;DHT22;1488;51.548;7.222;2024-01-16T21:05:49;23.60;50.00
2957;DHT22;1488;51.548;7.222;2024-01-16T21:08:19;23.60;50.00
2957;DHT22;1488;51.548;7.222;2024-01-16T21:10:46;23.50;50.00
2957;DHT22;1488;51.548;7.222;2024-01-16T21:13:13;23.60;50.00
2957;DHT22;1488;51.548;7.222;2024-01-16T21:15:40;23.50;50.10
2957;DHT22;1488;51.548;7.222;2024-01-16T21:18:09;23.50;50.20
2957;DHT22;1488;51.548;7.222;2024-01-16T21:20:35;23.50;50.20
2957;DHT22;1488;51.548;7.222;2024-01-16T21:23:03;23.60;50.10
2957;DHT22;1488;51.548;7.222;2024-01-16T21:25:31;23.60;49.80
2957;DHT22;1488;51.548;7.222;2024-01-16T21:27:58;23.60;50.00
2957;DHT22;1488;51.548;7.222;2024-01-16T21:30:24;23.60;49.80
2957;DHT22;1488;51.548;7.222;2024-01-16T21:32:52;23.60;49.80
2957;DHT22;1488;51.548;7.222;2024-01-16T21:35:20;23.60;49.80
2957;DHT22;1488;51.548;7.222;2024-01-16T21:37:47;23.60;49.90
2957;DHT22;1488;51.548;7.222;2024-01-16T21:40:14;23.60;49.80
2957;DHT22;1488;51.548;7.222;2024-01-16T21:42:41;23.70;49.80
2957;DHT22;1488;51.548;7.222;2024-01-16T21:45:08;23.60;49.80
2957;DHT22;1488;51.548;7.222;2024-01-16T21:47:35;23.50;49.70
2957;DHT22;1488;51.548;7.222;2024-01-16T21:50:03;23.50;49.80
2957;DHT22;1488;51.548;7.222;2024-01-16T21:52:31;23.60;49.70
2957;DHT22;1488;51.548;7.222;2024-01-16T21:54:58;23.50;49.60
2957;DHT22;1488;51.548;7.222;2024-01-16T21:57:25;23.60;49.80
2957;DHT22;1488;51.548;7.222;2024-01-16T21:59:55;23.50;49.50
2957;DHT22;1488;51.548;7.222;2024-01-16T22:02:22;23.50;49.60
2957;DHT22;1488;51.548;7.222;2024-01-16T22:04:49;23.50;49.60
2957;DHT22;1488;51.548;7.222;2024-01-16T22:07:16;23.50;49.60
2957;DHT22;1488;51.548;7.222;2024-01-16T22:09:45;23.50;49.50
2957;DHT22;1488;51.548;7.222;2024-01-16T22:12:12;23.50;49.50
2957;DHT22;1488;51.548;7.222;2024-01-16T22:14:39;23.40;49.60
2957;DHT22;1488;51.548;7.222;2024-01-16T22:17:07;23.40;49.70
2957;DHT22;1488;51.548;7.222;2024-01-16T22:19:34;23.40;49.60
2957;DHT22;1488;51.548;7.222;2024-01-16T22:22:01;23.40;49.70
2957;DHT22;1488;51.548;7.222;2024-01-16T22:24:27;23.30;49.70
2957;DHT22;1488;51.548;7.222;2024-01-16T22:26:56;23.30;49.60
2957;DHT22;1488;51.548;7.222;2024-01-16T22:29:22;23.30;49.80
2957;DHT22;1488;51.548;7.222;2024-01-16T22:31:49;23.30;49.80
2957;DHT22;1488;51.548;7.222;2024-01-16T22:34:29;23.20;49.60
2957;DHT22;1488;51.548;7.222;2024-01-16T22:36:58;23.20;49.80
2957;DHT22;1488;51.548;7.222;2024-01-16T22:39:25;23.20;49.80
2957;DHT22;1488;51.548;7.222;2024-01-16T22:41:52;23.20;49.90
2957;DHT22;1488;51.548;7.222;2024-01-16T22:44:23;23.10;49.70
2957;DHT22;1488;51.548;7.222;2024-01-16T22:46:53;23.10;49.60
2957;DHT22;1488;51.548;7.222;2024-01-16T22:49:20;23.10;49.70
2957;DHT22;1488;51.548;7.222;2024-01-16T22:51:47;23.10;49.70
2957;DHT22;1488;51.548;7.222;2024-01-16T22:54:15;23.10;49.70
2957;DHT22;1488;51.548;7.222;2024-01-16T22:56:42;23.10;49.80
2957;DHT22;1488;51.548;7.222;2024-01-16T22:59:09;23.10;49.80
2957;DHT22;1488;51.548;7.222;2024-01-16T23:01:37;23.00;49.80